Time;durP1;ratioP1;P1;durP2;ratioP2;P2;SDS_P1;SDS_P2;PMS_P1;PMS_P2;Temp;Humidity;BMP_temperature;BMP_pressure;BME280_temperature;BME280_humidity;BME280_pressure;Samples;Min_cycle;Max_cycle;Signal;HPM_P1;HPM_P2
2023/03/11 00:02:21;;;;;;;;;;;;;;;;;;4967225;28;19918;-80
2023/03/11 00:04:46;;;;;;;;;;;;;;;;;;4975735;28;19925;-80
2023/03/11 00:07:11;;;;;;;;;;;;;;;;;;4974456;28;20577;-80
2023/03/11 00:09:36;;;;;;;;;;;;;;;;;;4975041;28;20431;-80
2023/03/11 00:12:02;;;;;;;;;;;;;;;;;;4974426;28;19964;-79
2023/03/11 00:14:27;;;;;;;;;;;;;;;;;;4977651;28;19973;-80
2023/03/11 00:16:52;;;;;;;;;;;;;;;;;;4978455;28;20231;-81
2023/03/11 00:19:18;;;;;;;;;;;;;;;;;;4975709;28;19929;-81
2023/03/11 00:21:43;;;;;;;;;;;;;;;;;;4960916;28;19917;-80
2023/03/11 00:24:08;;;;;;;;;;;;;;;;;;4977044;28;19995;-81
2023/03/11 00:26:34;;;;;;;;;;;;;;;;;;4979881;28;20289;-80
2023/03/11 00:28:59;;;;;;;;;;;;;;;;;;4981089;28;19917;-81
2023/03/11 00:31:25;;;;;;;;;;;;;;;;;;4980932;28;19920;-80
2023/03/11 00:33:51;;;;;;;;;;;;;;;;;;4980696;28;19925;-81
2023/03/11 00:36:35;;;;;;;;;;;;;;;;;;4968014;28;19917;-81
2023/03/11 00:39:01;;;;;;;;;;;;;;;;;;4978748;28;19961;-80
2023/03/11 00:41:26;;;;;;;;;;;;;;;;;;4981133;28;19964;-81
2023/03/11 00:43:52;;;;;;;;;;;;;;;;;;4978023;28;19953;-80
2023/03/11 00:46:17;;;;;;;;;;;;;;;;;;4978163;28;19918;-79
2023/03/11 00:48:42;;;;;;;;;;;;;;;;;;4981533;28;19918;-80
2023/03/11 00:51:10;;;;;;;;;;;;;;;;;;4962518;28;19980;-80
2023/03/11 00:53:35;;;;;;;;;;;;;;;;;;4979784;28;19968;-79
2023/03/11 00:56:05;;;;;;;;;;;;;;;;;;4979480;28;20306;-80
2023/03/11 00:58:32;;;;;;;;;;;;;;;;;;4979015;28;20464;-80
2023/03/11 01:00:57;;;;;;;;;;;;;;;;;;4981448;28;20392;-81
2023/03/11 01:03:22;;;;;;;;;;;;;;;;;;4963121;28;19918;-82
2023/03/11 01:05:47;;;;;;;;;;;;;;;;;;4978482;28;20309;-82
2023/03/11 01:08:13;;;;;;;;;;;;;;;;;;4979064;28;19936;-82
2023/03/11 01:10:38;;;;;;;;;;;;;;;;;;4978434;28;19922;-81
2023/03/11 01:13:03;;;;;;;;;;;;;;;;;;4974000;28;19952;-81
2023/03/11 01:15:30;;;;;;;;;;;;;;;;;;4994681;28;19920;-81
2023/03/11 01:17:56;;;;;;;;;;;;;;;;;;4963227;28;19918;-80
2023/03/11 01:20:21;;;;;;;;;;;;;;;;;;4979469;28;20000;-80
2023/03/11 01:22:47;;;;;;;;;;;;;;;;;;4968765;28;19973;-81
2023/03/11 01:25:13;;;;;;;;;;;;;;;;;;4980622;28;19981;-80
2023/03/11 01:27:38;;;;;;;;;;;;;;;;;;4979746;28;19922;-79
2023/03/11 01:30:04;;;;;;;;;;;;;;;;;;4968336;28;19918;-80
2023/03/11 01:32:29;;;;;;;;;;;;;;;;;;4977098;28;19921;-80
2023/03/11 01:34:54;;;;;;;;;;;;;;;;;;4978442;28;19925;-81
2023/03/11 01:37:20;;;;;;;;;;;;;;;;;;4978108;28;19997;-80
2023/03/11 01:39:45;;;;;;;;;;;;;;;;;;4979582;28;19948;-80
2023/03/11 01:42:10;;;;;;;;;;;;;;;;;;4961901;28;19957;-80
2023/03/11 01:44:35;;;;;;;;;;;;;;;;;;4962278;28;19917;-80
2023/03/11 01:47:01;;;;;;;;;;;;;;;;;;4977710;28;19914;-80
2023/03/11 01:49:26;;;;;;;;;;;;;;;;;;4979429;28;19925;-80
2023/03/11 01:51:59;;;;;;;;;;;;;;;;;;4975944;28;19926;-80
2023/03/11 01:54:27;;;;;;;;;;;;;;;;;;4973512;28;19922;-81
2023/03/11 01:56:52;;;;;;;;;;;;;;;;;;4968034;28;20344;-83
2023/03/11 01:59:21;;;;;;;;;;;;;;;;;;4995680;28;19926;-80
2023/03/11 02:01:49;;;;;;;;;;;;;;;;;;4996140;28;20391;-81
2023/03/11 02:04:14;;;;;;;;;;;;;;;;;;4978774;28;19914;-80
2023/03/11 02:06:39;;;;;;;;;;;;;;;;;;4977152;28;19925;-80
2023/03/11 02:09:04;;;;;;;;;;;;;;;;;;4979113;28;19917;-80
2023/03/11 02:11:30;;;;;;;;;;;;;;;;;;4976760;28;19993;-80
2023/03/11 02:13:56;;;;;;;;;;;;;;;;;;4977984;28;19914;-81
2023/03/11 02:16:21;;;;;;;;;;;;;;;;;;4967728;28;19972;-81
2023/03/11 02:18:47;;;;;;;;;;;;;;;;;;4980127;28;20389;-82
2023/03/11 02:21:21;;;;;;;;;;;;;;;;;;4979041;28;19921;-81
2023/03/11 02:23:52;;;;;;;;;;;;;;;;;;4978174;28;19967;-80
2023/03/11 02:26:22;;;;;;;;;;;;;;;;;;4976943;28;19980;-80
2023/03/11 02:28:48;;;;;;;;;;;;;;;;;;4981348;28;19924;-80
2023/03/11 02:31:13;;;;;;;;;;;;;;;;;;4976793;28;19914;-80
2023/03/11 02:33:39;;;;;;;;;;;;;;;;;;4976773;28;19924;-79
2023/03/11 02:36:04;;;;;;;;;;;;;;;;;;4978058;28;19917;-79
2023/03/11 02:38:30;;;;;;;;;;;;;;;;;;4978934;28;19928;-79
2023/03/11 02:41:01;;;;;;;;;;;;;;;;;;4975634;28;19917;-79
2023/03/11 02:43:28;;;;;;;;;;;;;;;;;;4978212;28;19921;-80
2023/03/11 02:45:54;;;;;;;;;;;;;;;;;;4977133;28;20408;-80
2023/03/11 02:48:19;;;;;;;;;;;;;;;;;;4977709;28;19961;-80
2023/03/11 02:50:44;;;;;;;;;;;;;;;;;;4981976;28;20479;-80
2023/03/11 02:53:09;;;;;;;;;;;;;;;;;;4980914;28;19928;-80
2023/03/11 02:55:35;;;;;;;;;;;;;;;;;;4978551;28;19913;-79
2023/03/11 02:58:00;;;;;;;;;;;;;;;;;;4979998;28;19921;-80
2023/03/11 03:00:25;;;;;;;;;;;;;;;;;;4979600;28;20012;-80
2023/03/11 03:02:51;;;;;;;;;;;;;;;;;;4982791;28;19980;-81
2023/03/11 03:05:19;;;;;;;;;;;;;;;;;;4964484;28;19917;-81
2023/03/11 03:07:45;;;;;;;;;;;;;;;;;;4980143;28;19983;-81
2023/03/11 03:10:10;;;;;;;;;;;;;;;;;;4980854;28;19921;-81
2023/03/11 03:12:36;;;;;;;;;;;;;;;;;;4978086;28;19945;-80
2023/03/11 03:15:01;;;;;;;;;;;;;;;;;;4980705;28;19917;-81
2023/03/11 03:17:26;;;;;;;;;;;;;;;;;;4978984;28;19923;-80
2023/03/11 03:19:51;;;;;;;;;;;;;;;;;;4986884;28;19958;-81
2023/03/11 03:22:17;;;;;;;;;;;;;;;;;;4980852;28;19931;-81
2023/03/11 03:24:42;;;;;;;;;;;;;;;;;;4980507;28;19972;-81
2023/03/11 03:27:07;;;;;;;;;;;;;;;;;;4996600;28;19924;-81
2023/03/11 03:29:33;;;;;;;;;;;;;;;;;;4976636;28;19921;-80
2023/03/11 03:31:58;;;;;;;;;;;;;;;;;;4998904;28;20328;-81
2023/03/11 03:34:23;;;;;;;;;;;;;;;;;;4981167;28;19917;-81
2023/03/11 03:36:48;;;;;;;;;;;;;;;;;;4981464;28;19914;-81
2023/03/11 03:39:14;;;;;;;;;;;;;;;;;;4980842;28;20473;-80
2023/03/11 03:41:39;;;;;;;;;;;;;;;;;;4981781;28;19971;-80
2023/03/11 03:44:04;;;;;;;;;;;;;;;;;;4979933;28;19924;-81
2023/03/11 03:46:29;;;;;;;;;;;;;;;;;;4976628;28;20344;-80
2023/03/11 03:48:55;;;;;;;;;;;;;;;;;;4970035;28;20062;-80
2023/03/11 03:51:20;;;;;;;;;;;;;;;;;;4979397;28;19929;-80
2023/03/11 03:53:45;;;;;;;;;;;;;;;;;;4979870;28;20388;-81
2023/03/11 03:56:14;;;;;;;;;;;;;;;;;;4979278;28;19913;-80
2023/03/11 03:58:39;;;;;;;;;;;;;;;;;;4983209;28;20296;-80
2023/03/11 04:01:05;;;;;;;;;;;;;;;;;;4996678;28;19917;-80
2023/03/11 04:03:30;;;;;;;;;;;;;;;;;;4983811;28;19929;-80
2023/03/11 04:06:05;;;;;;;;;;;;;;;;;;4985696;28;19972;-81
2023/03/11 04:08:30;;;;;;;;;;;;;;;;;;4986571;28;19922;-80
2023/03/11 04:10:57;;;;;;;;;;;;;;;;;;4982124;28;19925;-80
2023/03/11 04:13:22;;;;;;;;;;;;;;;;;;4984687;28;20593;-81
2023/03/11 04:15:47;;;;;;;;;;;;;;;;;;4981708;28;19921;-80
2023/03/11 04:18:12;;;;;;;;;;;;;;;;;;4991403;28;19921;-80
2023/03/11 04:20:38;;;;;;;;;;;;;;;;;;4983679;28;19921;-80
2023/03/11 04:23:03;;;;;;;;;;;;;;;;;;4989065;28;20341;-80
2023/03/11 04:25:28;;;;;;;;;;;;;;;;;;4986192;28;20573;-81
2023/03/11 04:27:53;;;;;;;;;;;;;;;;;;4981682;28;19992;-80
2023/03/11 04:30:19;;;;;;;;;;;;;;;;;;4996856;28;20000;-80
2023/03/11 04:32:44;;;;;;;;;;;;;;;;;;4983596;28;19921;-79
2023/03/11 04:35:09;;;;;;;;;;;;;;;;;;4982203;28;19922;-80
2023/03/11 04:37:35;;;;;;;;;;;;;;;;;;4981025;28;19913;-80
2023/03/11 04:40:00;;;;;;;;;;;;;;;;;;5000673;28;19925;-81
2023/03/11 04:42:26;;;;;;;;;;;;;;;;;;4980996;28;19917;-80
2023/03/11 04:44:51;;;;;;;;;;;;;;;;;;4984645;28;19968;-80
2023/03/11 04:47:16;;;;;;;;;;;;;;;;;;4983298;28;19936;-80
2023/03/11 04:49:41;;;;;;;;;;;;;;;;;;4982244;28;19917;-80
2023/03/11 04:52:07;;;;;;;;;;;;;;;;;;4975949;28;19927;-80
2023/03/11 04:54:32;;;;;;;;;;;;;;;;;;4959960;28;20016;-79
2023/03/11 04:56:58;;;;;;;;;;;;;;;;;;4960426;28;20380;-80
2023/03/11 04:59:23;;;;;;;;;;;;;;;;;;4962152;28;19929;-80
2023/03/11 05:01:48;;;;;;;;;;;;;;;;;;4976390;28;19914;-80
2023/03/11 05:04:13;;;;;;;;;;;;;;;;;;4962001;28;19919;-79
2023/03/11 05:06:39;;;;;;;;;;;;;;;;;;4958858;28;19945;-79
2023/03/11 05:09:04;;;;;;;;;;;;;;;;;;4959273;28;19918;-80
2023/03/11 05:11:29;;;;;;;;;;;;;;;;;;4973903;28;19918;-81
2023/03/11 05:13:55;;;;;;;;;;;;;;;;;;4958430;28;19922;-80
2023/03/11 05:16:20;;;;;;;;;;;;;;;;;;4976104;28;19924;-81
2023/03/11 05:18:48;;;;;;;;;;;;;;;;;;4975269;28;19917;-80
2023/03/11 05:21:13;;;;;;;;;;;;;;;;;;4959103;28;19934;-80
2023/03/11 05:23:39;;;;;;;;;;;;;;;;;;4959505;28;20484;-80
2023/03/11 05:26:04;;;;;;;;;;;;;;;;;;4966028;28;20270;-80
2023/03/11 05:28:29;;;;;;;;;;;;;;;;;;4955412;28;20301;-80
2023/03/11 05:30:54;;;;;;;;;;;;;;;;;;4972680;28;19922;-80
2023/03/11 05:33:23;;;;;;;;;;;;;;;;;;4975736;28;19914;-81
2023/03/11 05:35:50;;;;;;;;;;;;;;;;;;4967530;28;20001;-79
2023/03/11 05:38:15;;;;;;;;;;;;;;;;;;4974084;28;20344;-79
2023/03/11 05:40:41;;;;;;;;;;;;;;;;;;4956586;28;19922;-79
2023/03/11 05:43:06;;;;;;;;;;;;;;;;;;4959756;28;20313;-79
2023/03/11 05:45:31;;;;;;;;;;;;;;;;;;4973701;28;20408;-79
2023/03/11 05:47:56;;;;;;;;;;;;;;;;;;4974427;28;20417;-79
2023/03/11 05:50:22;;;;;;;;;;;;;;;;;;4976395;28;19919;-79
2023/03/11 05:52:47;;;;;;;;;;;;;;;;;;5000094;28;19921;-79
2023/03/11 05:55:12;;;;;;;;;;;;;;;;;;4998616;28;19961;-80
2023/03/11 05:57:38;;;;;;;;;;;;;;;;;;4980226;28;19918;-79
2023/03/11 06:00:06;;;;;;;;;;;;;;;;;;4979942;28;19928;-79
2023/03/11 06:02:31;;;;;;;;;;;;;;;;;;4998839;28;19913;-80
2023/03/11 06:04:56;;;;;;;;;;;;;;;;;;4997135;28;19917;-80
2023/03/11 06:07:21;;;;;;;;;;;;;;;;;;4981125;28;19922;-80
2023/03/11 06:09:48;;;;;;;;;;;;;;;;;;4981901;28;19917;-79
2023/03/11 06:12:13;;;;;;;;;;;;;;;;;;4980411;28;19995;-80
2023/03/11 06:14:39;;;;;;;;;;;;;;;;;;4980276;28;20432;-80
2023/03/11 06:17:04;;;;;;;;;;;;;;;;;;4979215;28;19920;-80
2023/03/11 06:19:29;;;;;;;;;;;;;;;;;;4999116;28;19932;-80
2023/03/11 06:21:54;;;;;;;;;;;;;;;;;;4997034;28;19924;-81
2023/03/11 06:24:20;;;;;;;;;;;;;;;;;;4979773;28;20284;-80
2023/03/11 06:26:45;;;;;;;;;;;;;;;;;;4996499;28;19917;-80
2023/03/11 06:29:11;;;;;;;;;;;;;;;;;;4983742;28;19924;-80
2023/03/11 06:31:38;;;;;;;;;;;;;;;;;;4979310;28;20000;-80
2023/03/11 06:34:05;;;;;;;;;;;;;;;;;;4980357;28;20039;-81
2023/03/11 06:36:30;;;;;;;;;;;;;;;;;;4997288;28;19922;-80
2023/03/11 06:38:55;;;;;;;;;;;;;;;;;;4964752;28;19917;-80
2023/03/11 06:41:20;;;;;;;;;;;;;;;;;;4998172;28;19913;-79
2023/03/11 06:43:46;;;;;;;;;;;;;;;;;;4977471;28;20431;-79
2023/03/11 06:46:12;;;;;;;;;;;;;;;;;;4979873;28;20329;-80
2023/03/11 06:48:37;;;;;;;;;;;;;;;;;;4980617;28;19972;-79
2023/03/11 06:51:03;;;;;;;;;;;;;;;;;;4995478;28;19972;-79
2023/03/11 06:53:28;;;;;;;;;;;;;;;;;;4998706;28;19914;-78
2023/03/11 06:56:00;;;;;;;;;;;;;;;;;;4979856;28;19920;-80
2023/03/11 06:58:26;;;;;;;;;;;;;;;;;;4985896;28;20353;-79
2023/03/11 07:00:51;;;;;;;;;;;;;;;;;;4995680;28;19921;-78
2023/03/11 07:03:16;;;;;;;;;;;;;;;;;;4981094;28;20029;-78
2023/03/11 07:05:42;;;;;;;;;;;;;;;;;;4977723;28;19917;-78
2023/03/11 07:08:10;;;;;;;;;;;;;;;;;;4997450;28;19956;-78
2023/03/11 07:10:35;;;;;;;;;;;;;;;;;;4980744;28;20388;-78
2023/03/11 07:13:01;;;;;;;;;;;;;;;;;;4996773;28;19960;-78
2023/03/11 07:15:26;;;;;;;;;;;;;;;;;;4978961;28;20521;-78
2023/03/11 07:17:51;;;;;;;;;;;;;;;;;;4978468;28;20280;-78
2023/03/11 07:20:16;;;;;;;;;;;;;;;;;;4995707;28;19932;-80
2023/03/11 07:22:42;;;;;;;;;;;;;;;;;;4980310;28;19924;-79
2023/03/11 07:25:07;;;;;;;;;;;;;;;;;;4998478;28;19960;-80
2023/03/11 07:27:32;;;;;;;;;;;;;;;;;;4979733;28;19964;-78
2023/03/11 07:29:59;;;;;;;;;;;;;;;;;;4995531;28;19917;-78
2023/03/11 07:32:24;;;;;;;;;;;;;;;;;;4999044;28;20340;-79
2023/03/11 07:34:49;;;;;;;;;;;;;;;;;;4961489;28;19997;-78
2023/03/11 07:37:14;;;;;;;;;;;;;;;;;;4996615;28;19964;-79
2023/03/11 07:39:40;;;;;;;;;;;;;;;;;;4996405;28;19926;-79
2023/03/11 07:42:05;;;;;;;;;;;;;;;;;;4976441;28;19913;-79
2023/03/11 07:44:30;;;;;;;;;;;;;;;;;;4997929;28;19914;-79
2023/03/11 07:46:56;;;;;;;;;;;;;;;;;;4998284;28;19936;-79
2023/03/11 07:49:21;;;;;;;;;;;;;;;;;;4981087;28;19927;-78
2023/03/11 07:51:46;;;;;;;;;;;;;;;;;;4996341;28;19994;-78
2023/03/11 07:54:12;;;;;;;;;;;;;;;;;;4969981;28;19917;-78
2023/03/11 07:56:37;;;;;;;;;;;;;;;;;;4997097;28;19920;-79
2023/03/11 07:59:03;;;;;;;;;;;;;;;;;;4977119;28;19918;-80
2023/03/11 08:01:34;;;;;;;;;;;;;;;;;;4980000;28;19917;-80
2023/03/11 08:04:00;;;;;;;;;;;;;;;;;;4982007;28;20375;-79
2023/03/11 08:06:30;;;;;;;;;;;;;;;;;;4995309;28;19917;-79
2023/03/11 08:08:55;;;;;;;;;;;;;;;;;;4979967;28;20296;-79
2023/03/11 08:11:21;;;;;;;;;;;;;;;;;;4978708;28;19918;-78
2023/03/11 08:13:46;;;;;;;;;;;;;;;;;;4964812;28;20407;-82
2023/03/11 08:16:13;;;;;;;;;;;;;;;;;;4978223;28;19918;-82
2023/03/11 08:18:38;;;;;;;;;;;;;;;;;;4981048;28;20424;-81
2023/03/11 08:21:04;;;;;;;;;;;;;;;;;;4995818;28;19922;-82
2023/03/11 08:23:30;;;;;;;;;;;;;;;;;;4979921;28;19929;-83
2023/03/11 08:25:55;;;;;;;;;;;;;;;;;;4978950;28;20005;-80
2023/03/11 08:28:20;;;;;;;;;;;;;;;;;;4978991;28;20282;-79
2023/03/11 08:30:46;;;;;;;;;;;;;;;;;;4977479;28;19943;-78
2023/03/11 08:33:11;;;;;;;;;;;;;;;;;;4977148;28;19996;-79
2023/03/11 08:35:36;;;;;;;;;;;;;;;;;;4978241;28;20351;-78
2023/03/11 08:38:02;;;;;;;;;;;;;;;;;;4995384;28;19921;-79
2023/03/11 08:40:27;;;;;;;;;;;;;;;;;;4993322;28;19921;-79
2023/03/11 08:42:54;;;;;;;;;;;;;;;;;;4978481;28;20421;-84
2023/03/11 08:45:19;;;;;;;;;;;;;;;;;;4968082;28;20266;-83
2023/03/11 08:47:44;;;;;;;;;;;;;;;;;;5000949;28;19924;-82
2023/03/11 08:50:13;;;;;;;;;;;;;;;;;;4981872;28;19961;-83
2023/03/11 08:52:38;;;;;;;;;;;;;;;;;;4982001;28;19980;-82
2023/03/11 08:55:04;;;;;;;;;;;;;;;;;;4980166;28;20376;-82
2023/03/11 08:57:30;;;;;;;;;;;;;;;;;;4981630;28;19921;-79
2023/03/11 08:59:57;;;;;;;;;;;;;;;;;;4998706;28;19925;-79
2023/03/11 09:02:22;;;;;;;;;;;;;;;;;;4998769;28;19917;-79
2023/03/11 09:04:48;;;;;;;;;;;;;;;;;;4998746;28;19929;-79
2023/03/11 09:07:13;;;;;;;;;;;;;;;;;;4964356;28;20016;-79
2023/03/11 09:09:38;;;;;;;;;;;;;;;;;;4997016;28;19918;-79
2023/03/11 09:12:04;;;;;;;;;;;;;;;;;;4982544;28;19924;-79
2023/03/11 09:14:29;;;;;;;;;;;;;;;;;;4982028;28;20384;-89
2023/03/11 09:16:54;;;;;;;;;;;;;;;;;;4980605;28;20357;-89
2023/03/11 09:19:19;;;;;;;;;;;;;;;;;;4984629;28;20095;-90
2023/03/11 09:21:45;;;;;;;;;;;;;;;;;;4984302;28;20357;-85
2023/03/11 09:24:10;;;;;;;;;;;;;;;;;;4988245;28;19996;-78
2023/03/11 09:26:35;;;;;;;;;;;;;;;;;;4981647;28;19917;-77
2023/03/11 09:29:00;;;;;;;;;;;;;;;;;;4967013;28;20296;-78
2023/03/11 09:31:26;;;;;;;;;;;;;;;;;;4997964;28;19928;-78
2023/03/11 09:33:51;;;;;;;;;;;;;;;;;;4979848;28;20350;-78
2023/03/11 09:36:18;;;;;;;;;;;;;;;;;;4986909;28;20402;-77
2023/03/11 09:38:43;;;;;;;;;;;;;;;;;;4979297;28;19973;-78
2023/03/11 09:41:08;;;;;;;;;;;;;;;;;;4985314;28;19921;-78
2023/03/11 09:43:43;;;;;;;;;;;;;;;;;;4996777;28;19921;-86
2023/03/11 09:46:34;;;;;;;;;;;;;;;;;;4970629;28;19918;-88
2023/03/11 09:49:04;;;;;;;;;;;;;;;;;;4985046;28;20384;-87
2023/03/11 09:51:30;;;;;;;;;;;;;;;;;;4980400;28;19936;-89
2023/03/11 09:53:59;;;;;;;;;;;;;;;;;;4997146;28;19917;-80
2023/03/11 09:56:24;;;;;;;;;;;;;;;;;;4988785;28;19917;-82
2023/03/11 09:58:54;;;;;;;;;;;;;;;;;;4981867;28;20400;-79
2023/03/11 10:01:23;;;;;;;;;;;;;;;;;;4998009;28;19925;-79
2023/03/11 10:03:49;;;;;;;;;;;;;;;;;;4980664;28;19924;-79
2023/03/11 10:06:24;;;;;;;;;;;;;;;;;;4963570;28;19917;-79
2023/03/11 10:08:58;;;;;;;;;;;;;;;;;;4998696;28;19967;-79
2023/03/11 10:11:43;;;;;;;;;;;;;;;;;;4980396;28;19921;-83
2023/03/11 10:14:13;;;;;;;;;;;;;;;;;;4979434;28;19917;-78
2023/03/11 10:16:39;;;;;;;;;;;;;;;;;;4969405;28;19917;-78
2023/03/11 10:19:10;;;;;;;;;;;;;;;;;;4980055;28;19940;-83
2023/03/11 10:21:42;;;;;;;;;;;;;;;;;;4996933;28;19968;-82
2023/03/11 10:24:13;;;;;;;;;;;;;;;;;;4996438;28;20654;-82
2023/03/11 10:26:40;;;;;;;;;;;;;;;;;;4996281;28;20439;-82
2023/03/11 10:29:24;;;;;;;;;;;;;;;;;;4997723;28;19960;-79
2023/03/11 10:32:06;;;;;;;;;;;;;;;;;;4995506;28;20328;-78
2023/03/11 10:34:42;;;;;;;;;;;;;;;;;;4979611;28;20398;-79
2023/03/11 10:37:11;;;;;;;;;;;;;;;;;;4978806;28;20360;-79
2023/03/11 10:39:37;;;;;;;;;;;;;;;;;;4980140;28;19964;-79
2023/03/11 10:42:03;;;;;;;;;;;;;;;;;;4965420;28;19952;-79
2023/03/11 10:44:28;;;;;;;;;;;;;;;;;;4964475;28;19917;-79
2023/03/11 10:46:54;;;;;;;;;;;;;;;;;;4985941;28;20380;-82
2023/03/11 10:49:19;;;;;;;;;;;;;;;;;;4987797;28;21351;-79
2023/03/11 10:51:45;;;;;;;;;;;;;;;;;;4969670;28;20735;-79
2023/03/11 10:54:20;;;;;;;;;;;;;;;;;;4969928;28;20005;-79
2023/03/11 10:56:45;;;;;;;;;;;;;;;;;;4979150;28;20329;-79
2023/03/11 10:59:29;;;;;;;;;;;;;;;;;;4978424;28;19917;-79
2023/03/11 11:01:59;;;;;;;;;;;;;;;;;;4961862;28;20004;-80
2023/03/11 11:04:34;;;;;;;;;;;;;;;;;;4977498;28;19917;-81
2023/03/11 11:07:18;;;;;;;;;;;;;;;;;;4976191;28;20352;-80
2023/03/11 11:09:44;;;;;;;;;;;;;;;;;;4978626;28;20275;-79
2023/03/11 11:12:17;;;;;;;;;;;;;;;;;;4970656;28;19921;-79
2023/03/11 11:14:51;;;;;;;;;;;;;;;;;;4999350;28;19925;-85
2023/03/11 11:17:17;;;;;;;;;;;;;;;;;;4970622;28;19918;-79
2023/03/11 11:19:45;;;;;;;;;;;;;;;;;;4979591;28;20444;-79
2023/03/11 11:22:13;;;;;;;;;;;;;;;;;;4979978;28;20368;-79
2023/03/11 11:24:42;;;;;;;;;;;;;;;;;;4958544;28;19913;-85
2023/03/11 11:27:19;;;;;;;;;;;;;;;;;;4983920;28;20280;-82
2023/03/11 11:29:45;;;;;;;;;;;;;;;;;;4994192;28;19964;-83
2023/03/11 11:32:20;;;;;;;;;;;;;;;;;;4979897;28;19956;-82
2023/03/11 11:35:18;;;;;;;;;;;;;;;;;;4979705;28;19913;-81
2023/03/11 11:37:47;;;;;;;;;;;;;;;;;;4964988;28;19918;-82
2023/03/11 11:40:13;;;;;;;;;;;;;;;;;;4979427;28;20411;-83
2023/03/11 11:42:39;;;;;;;;;;;;;;;;;;4979711;28;19921;-82
2023/03/11 11:45:09;;;;;;;;;;;;;;;;;;4982123;28;20005;-81
2023/03/11 11:47:34;;;;;;;;;;;;;;;;;;4974969;28;20285;-81
2023/03/11 11:50:01;;;;;;;;;;;;;;;;;;4976241;28;19963;-82
2023/03/11 11:52:34;;;;;;;;;;;;;;;;;;4977405;28;19929;-81
2023/03/11 11:55:00;;;;;;;;;;;;;;;;;;4982841;28;20276;-83
2023/03/11 11:57:26;;;;;;;;;;;;;;;;;;4992472;28;19917;-81
2023/03/11 11:59:51;;;;;;;;;;;;;;;;;;4969121;28;20377;-82
2023/03/11 12:02:34;;;;;;;;;;;;;;;;;;4980996;28;19926;-83
2023/03/11 12:05:18;;;;;;;;;;;;;;;;;;4993770;28;19921;-81
2023/03/11 12:07:44;;;;;;;;;;;;;;;;;;4997734;28;21385;-84
2023/03/11 12:10:28;;;;;;;;;;;;;;;;;;4997306;28;20032;-82
2023/03/11 12:13:12;;;;;;;;;;;;;;;;;;4996491;28;20265;-82
2023/03/11 12:15:41;;;;;;;;;;;;;;;;;;4996284;28;19913;-82
2023/03/11 12:18:11;;;;;;;;;;;;;;;;;;4973114;28;19913;-83
2023/03/11 12:20:38;;;;;;;;;;;;;;;;;;4978100;28;19917;-82
2023/03/11 12:23:04;;;;;;;;;;;;;;;;;;4984677;28;19917;-84
2023/03/11 12:25:32;;;;;;;;;;;;;;;;;;4982263;28;20269;-84
2023/03/11 12:28:05;;;;;;;;;;;;;;;;;;5000548;28;20365;-84
2023/03/11 12:30:31;;;;;;;;;;;;;;;;;;4980344;28;19929;-83
2023/03/11 12:33:00;;;;;;;;;;;;;;;;;;4998127;28;19917;-82
2023/03/11 12:35:27;;;;;;;;;;;;;;;;;;4980429;28;19914;-82
2023/03/11 12:37:56;;;;;;;;;;;;;;;;;;4973074;28;20400;-83
2023/03/11 12:40:40;;;;;;;;;;;;;;;;;;4981824;28;19917;-82
2023/03/11 12:43:21;;;;;;;;;;;;;;;;;;5001204;28;19917;-82
2023/03/11 12:45:47;;;;;;;;;;;;;;;;;;4964375;28;19917;-83
2023/03/11 12:48:33;;;;;;;;;;;;;;;;;;4964386;28;19923;-83
2023/03/11 12:51:01;;;;;;;;;;;;;;;;;;4975134;28;20409;-83
2023/03/11 12:53:46;;;;;;;;;;;;;;;;;;4981289;28;19936;-84
2023/03/11 12:56:14;;;;;;;;;;;;;;;;;;4969315;28;19996;-83
2023/03/11 12:58:43;;;;;;;;;;;;;;;;;;5000095;28;19921;-83
2023/03/11 13:01:38;;;;;;;;;;;;;;;;;;4966087;28;19987;-87
2023/03/11 13:04:03;;;;;;;;;;;;;;;;;;4938763;28;19918;-88
2023/03/11 13:06:47;;;;;;;;;;;;;;;;;;4976656;28;19937;-87
2023/03/11 13:09:13;;;;;;;;;;;;;;;;;;4980064;28;19917;-86
2023/03/11 13:11:44;;;;;;;;;;;;;;;;;;4971732;28;19925;-81
2023/03/11 13:14:29;;;;;;;;;;;;;;;;;;4965515;28;20462;-81
2023/03/11 13:16:55;;;;;;;;;;;;;;;;;;4985363;28;20712;-79
2023/03/11 13:19:47;;;;;;;;;;;;;;;;;;4984020;28;19917;-81
2023/03/11 13:22:31;;;;;;;;;;;;;;;;;;4996005;28;19917;-80
2023/03/11 13:24:57;;;;;;;;;;;;;;;;;;4989759;28;20348;-80
2023/03/11 13:27:26;;;;;;;;;;;;;;;;;;4998750;28;19925;-80
2023/03/11 13:29:58;;;;;;;;;;;;;;;;;;4997067;28;19917;-81
2023/03/11 13:32:49;;;;;;;;;;;;;;;;;;4997419;28;19914;-80
2023/03/11 13:35:21;;;;;;;;;;;;;;;;;;4967980;28;19944;-80
2023/03/11 13:38:04;;;;;;;;;;;;;;;;;;4999309;28;19916;-80
2023/03/11 13:40:29;;;;;;;;;;;;;;;;;;4999760;28;19928;-80
2023/03/11 13:42:57;;;;;;;;;;;;;;;;;;4980562;28;19917;-84
2023/03/11 13:45:29;;;;;;;;;;;;;;;;;;4980426;28;19920;-80
2023/03/11 13:47:58;;;;;;;;;;;;;;;;;;4980516;28;19921;-80
2023/03/11 13:50:26;;;;;;;;;;;;;;;;;;4996021;28;19924;-80
2023/03/11 13:52:54;;;;;;;;;;;;;;;;;;4996742;28;19917;-81
2023/03/11 13:55:21;;;;;;;;;;;;;;;;;;4964928;28;19940;-81
2023/03/11 13:58:09;;;;;;;;;;;;;;;;;;4982437;28;20361;-81
2023/03/11 14:00:35;;;;;;;;;;;;;;;;;;4995023;28;19955;-81
2023/03/11 14:03:03;;;;;;;;;;;;;;;;;;4981672;28;19917;-82
2023/03/11 14:05:35;;;;;;;;;;;;;;;;;;4976942;28;19918;-81
2023/03/11 14:08:12;;;;;;;;;;;;;;;;;;4961480;28;20380;-80
2023/03/11 14:10:37;;;;;;;;;;;;;;;;;;4996600;28;19913;-81
2023/03/11 14:13:04;;;;;;;;;;;;;;;;;;4987245;28;20293;-81
2023/03/11 14:15:29;;;;;;;;;;;;;;;;;;4981221;28;20060;-81
2023/03/11 14:17:55;;;;;;;;;;;;;;;;;;4982403;28;20000;-81
2023/03/11 14:20:23;;;;;;;;;;;;;;;;;;4978430;28;19921;-81
2023/03/11 14:22:49;;;;;;;;;;;;;;;;;;4964348;28;20410;-80
2023/03/11 14:25:19;;;;;;;;;;;;;;;;;;4977070;28;19967;-79
2023/03/11 14:27:46;;;;;;;;;;;;;;;;;;4980447;28;19970;-80
2023/03/11 14:30:22;;;;;;;;;;;;;;;;;;4979203;28;19941;-80
2023/03/11 14:33:01;;;;;;;;;;;;;;;;;;4999108;28;19921;-79
2023/03/11 14:35:26;;;;;;;;;;;;;;;;;;4968676;28;20370;-79
2023/03/11 14:37:52;;;;;;;;;;;;;;;;;;4981376;28;19921;-79
2023/03/11 14:40:31;;;;;;;;;;;;;;;;;;4968664;28;20285;-79
2023/03/11 14:42:57;;;;;;;;;;;;;;;;;;4968677;28;20580;-79
2023/03/11 14:45:23;;;;;;;;;;;;;;;;;;4964758;28;19924;-78
2023/03/11 14:47:48;;;;;;;;;;;;;;;;;;4981265;28;20365;-80
2023/03/11 14:50:14;;;;;;;;;;;;;;;;;;4968191;28;19960;-78
2023/03/11 14:52:44;;;;;;;;;;;;;;;;;;4999145;28;19928;-79
2023/03/11 14:55:14;;;;;;;;;;;;;;;;;;4970352;28;19921;-81
2023/03/11 14:57:41;;;;;;;;;;;;;;;;;;4962421;28;19956;-79
2023/03/11 15:00:10;;;;;;;;;;;;;;;;;;4998222;28;19968;-79
2023/03/11 15:02:36;;;;;;;;;;;;;;;;;;4969991;28;19914;-79
2023/03/11 15:05:02;;;;;;;;;;;;;;;;;;4995502;28;19917;-80
2023/03/11 15:07:27;;;;;;;;;;;;;;;;;;4965831;28;20606;-79
2023/03/11 15:09:52;;;;;;;;;;;;;;;;;;4981503;28;19963;-79
2023/03/11 15:12:38;;;;;;;;;;;;;;;;;;4978604;28;19921;-80
2023/03/11 15:15:19;;;;;;;;;;;;;;;;;;4995483;28;19917;-80
2023/03/11 15:17:50;;;;;;;;;;;;;;;;;;4979715;28;19964;-79
2023/03/11 15:20:32;;;;;;;;;;;;;;;;;;4978481;28;19948;-80
2023/03/11 15:23:01;;;;;;;;;;;;;;;;;;4996428;28;20661;-79
2023/03/11 15:25:27;;;;;;;;;;;;;;;;;;4963445;28;20003;-79
2023/03/11 15:27:53;;;;;;;;;;;;;;;;;;4979738;28;20385;-79
2023/03/11 15:30:20;;;;;;;;;;;;;;;;;;4976743;28;19917;-79
2023/03/11 15:32:45;;;;;;;;;;;;;;;;;;4980473;28;19956;-78
2023/03/11 15:35:20;;;;;;;;;;;;;;;;;;4994313;28;20376;-79
2023/03/11 15:37:46;;;;;;;;;;;;;;;;;;4996337;28;20321;-79
2023/03/11 15:40:23;;;;;;;;;;;;;;;;;;4979250;28;20423;-81
2023/03/11 15:42:48;;;;;;;;;;;;;;;;;;4977153;28;20405;-79
2023/03/11 15:45:15;;;;;;;;;;;;;;;;;;4978389;28;19981;-79
2023/03/11 15:47:40;;;;;;;;;;;;;;;;;;4981067;28;19950;-80
2023/03/11 15:50:11;;;;;;;;;;;;;;;;;;4979535;28;20495;-79
2023/03/11 15:52:36;;;;;;;;;;;;;;;;;;4994133;28;19980;-79
2023/03/11 15:55:02;;;;;;;;;;;;;;;;;;4996695;28;20300;-80
2023/03/11 15:57:27;;;;;;;;;;;;;;;;;;4982451;28;19917;-81
2023/03/11 15:59:53;;;;;;;;;;;;;;;;;;5000103;28;19925;-80
2023/03/11 16:02:25;;;;;;;;;;;;;;;;;;4981686;28;19921;-81
2023/03/11 16:04:51;;;;;;;;;;;;;;;;;;4985293;28;20635;-80
2023/03/11 16:07:16;;;;;;;;;;;;;;;;;;4965968;28;19929;-76
2023/03/11 16:09:41;;;;;;;;;;;;;;;;;;4981712;28;20343;-80
2023/03/11 16:12:17;;;;;;;;;;;;;;;;;;4985361;28;20012;-80
2023/03/11 16:14:42;;;;;;;;;;;;;;;;;;4978979;28;19913;-82
2023/03/11 16:17:13;;;;;;;;;;;;;;;;;;4972167;28;20245;-83
2023/03/11 16:19:38;;;;;;;;;;;;;;;;;;4980530;28;19925;-83
2023/03/11 16:22:04;;;;;;;;;;;;;;;;;;4963824;28;19941;-82
2023/03/11 16:24:32;;;;;;;;;;;;;;;;;;4980938;28;19925;-83
2023/03/11 16:26:58;;;;;;;;;;;;;;;;;;4981493;28;19920;-82
2023/03/11 16:29:25;;;;;;;;;;;;;;;;;;4998867;28;20685;-81
2023/03/11 16:31:51;;;;;;;;;;;;;;;;;;4982047;28;19983;-81
2023/03/11 16:34:19;;;;;;;;;;;;;;;;;;4970716;28;20050;-82
2023/03/11 16:36:44;;;;;;;;;;;;;;;;;;4982530;28;20658;-81
2023/03/11 16:39:10;;;;;;;;;;;;;;;;;;4981966;28;19921;-82
2023/03/11 16:41:39;;;;;;;;;;;;;;;;;;4968384;28;19921;-82
2023/03/11 16:44:04;;;;;;;;;;;;;;;;;;4973127;28;19917;-84
2023/03/11 16:46:30;;;;;;;;;;;;;;;;;;4986495;28;19921;-82
2023/03/11 16:48:55;;;;;;;;;;;;;;;;;;4965711;28;19917;-83
2023/03/11 16:51:20;;;;;;;;;;;;;;;;;;4970818;28;19931;-83